Time;durP1;ratioP1;P1;durP2;ratioP2;P2;SDS_P1;SDS_P2;PMS_P1;PMS_P2;Temp;Humidity;BMP_temperature;BMP_pressure;BME280_temperature;BME280_humidity;BME280_pressure;Samples;Min_cycle;Max_cycle;Signal;HPM_P1;HPM_P2
2022/01/15 00:00:30;;;;;;;0.60;0.60;;;;;;;;;;5126086;28;20398;-78
2022/01/15 00:02:56;;;;;;;0.10;0.10;;;;;;;;;;5125913;28;20202;-80
2022/01/15 00:05:23;;;;;;;0.20;0.20;;;;;;;;;;5125998;27;20392;-80
2022/01/15 00:07:50;;;;;;;0.10;0.10;;;;;;;;;;5125718;28;20207;-81
2022/01/15 00:10:17;;;;;;;0.20;0.20;;;;;;;;;;5125565;28;20298;-80
2022/01/15 00:12:44;;;;;;;0.20;0.20;;;;;;;;;;5125496;27;20245;-79
2022/01/15 00:15:15;;;;;;;0.20;0.20;;;;;;;;;;5125238;28;20214;-79
2022/01/15 00:17:49;;;;;;;0.20;0.20;;;;;;;;;;5125327;28;20211;-80
2022/01/15 00:20:19;;;;;;;0.20;0.20;;;;;;;;;;5136476;27;20234;-80
2022/01/15 00:22:45;;;;;;;0.10;0.10;;;;;;;;;;5145931;27;20233;-80
2022/01/15 00:25:13;;;;;;;0.17;0.17;;;;;;;;;;5145525;27;20203;-79
2022/01/15 00:27:40;;;;;;;0.20;0.20;;;;;;;;;;5145593;27;20193;-80
2022/01/15 00:30:07;;;;;;;0.20;0.20;;;;;;;;;;5145747;27;20251;-80
2022/01/15 00:32:33;;;;;;;0.10;0.10;;;;;;;;;;5146015;27;20202;-80
2022/01/15 00:35:00;;;;;;;0.17;0.17;;;;;;;;;;5145787;27;20203;-80
2022/01/15 00:37:26;;;;;;;0.20;0.20;;;;;;;;;;5145726;27;20243;-78
2022/01/15 00:39:53;;;;;;;0.20;0.20;;;;;;;;;;5128606;27;20261;-79
2022/01/15 00:42:20;;;;;;;0.20;0.20;;;;;;;;;;5124491;28;20203;-78
2022/01/15 00:44:49;;;;;;;0.20;0.20;;;;;;;;;;5124878;28;20240;-79
2022/01/15 00:47:15;;;;;;;0.10;0.10;;;;;;;;;;5124707;28;20232;-80
2022/01/15 00:49:42;;;;;;;0.10;0.10;;;;;;;;;;5124803;28;20511;-79
2022/01/15 00:52:08;;;;;;;0.20;0.20;;;;;;;;;;5124402;28;20210;-78
2022/01/15 00:54:34;;;;;;;0.20;0.20;;;;;;;;;;5124589;28;20205;-81
2022/01/15 00:57:00;;;;;;;0.20;0.20;;;;;;;;;;5124592;28;20199;-79
2022/01/15 00:59:28;;;;;;;0.10;0.10;;;;;;;;;;5124764;28;20253;-80
2022/01/15 01:01:54;;;;;;;0.13;0.13;;;;;;;;;;5124497;27;20248;-80
2022/01/15 01:04:21;;;;;;;0.10;0.10;;;;;;;;;;5124602;28;20204;-80
2022/01/15 01:06:47;;;;;;;0.10;0.10;;;;;;;;;;5124391;28;20289;-79
2022/01/15 01:09:14;;;;;;;0.10;0.10;;;;;;;;;;5124070;28;20219;-79
2022/01/15 01:11:46;;;;;;;0.13;0.13;;;;;;;;;;5123948;28;20279;-80
2022/01/15 01:25:11;;;;;;;0.20;0.20;;;;;;;;;;5124071;28;20190;-81
2022/01/15 01:27:47;;;;;;;0.20;0.20;;;;;;;;;;5123710;28;20239;-80
2022/01/15 01:30:20;;;;;;;0.10;0.10;;;;;;;;;;5123913;28;20205;-80
2022/01/15 01:32:53;;;;;;;0.10;0.10;;;;;;;;;;5123690;28;20183;-80
2022/01/15 01:35:32;;;;;;;0.20;0.20;;;;;;;;;;5123706;28;20211;-79
2022/01/15 01:38:06;;;;;;;0.20;0.20;;;;;;;;;;5123795;28;20418;-78
2022/01/15 01:40:38;;;;;;;0.20;0.20;;;;;;;;;;5133759;27;20446;-79
2022/01/15 01:43:15;;;;;;;0.20;0.20;;;;;;;;;;5144035;27;20205;-80
2022/01/15 01:45:46;;;;;;;0.20;0.20;;;;;;;;;;5144475;27;20195;-78
2022/01/15 01:48:13;;;;;;;0.20;0.20;;;;;;;;;;5144240;27;20229;-78
2022/01/15 01:50:39;;;;;;;0.20;0.20;;;;;;;;;;5143890;27;20201;-80
2022/01/15 01:53:05;;;;;;;0.20;0.20;;;;;;;;;;5144314;27;20223;-80
2022/01/15 01:55:32;;;;;;;0.20;0.20;;;;;;;;;;5144088;27;20299;-80
2022/01/15 01:57:59;;;;;;;0.13;0.13;;;;;;;;;;5144037;27;20198;-80
2022/01/15 02:00:26;;;;;;;0.20;0.20;;;;;;;;;;5144373;27;20279;-80
2022/01/15 02:02:53;;;;;;;0.20;0.20;;;;;;;;;;5144176;27;20553;-79
2022/01/15 02:05:21;;;;;;;0.10;0.10;;;;;;;;;;5143818;27;20328;-79
2022/01/15 02:07:48;;;;;;;0.20;0.20;;;;;;;;;;5144042;27;20495;-79
2022/01/15 02:10:16;;;;;;;0.10;0.10;;;;;;;;;;5144397;27;20268;-78
2022/01/15 02:12:42;;;;;;;0.20;0.20;;;;;;;;;;5143888;28;20207;-80
2022/01/15 02:15:09;;;;;;;0.20;0.20;;;;;;;;;;5144240;27;20251;-79
2022/01/15 02:17:35;;;;;;;0.20;0.20;;;;;;;;;;5143824;27;20449;-79
2022/01/15 02:25:43;;;;;;;0.20;0.20;;;;;;;;;;5144075;28;20216;-78
2022/01/15 02:28:09;;;;;;;0.23;0.23;;;;;;;;;;5144204;27;20289;-79
2022/01/15 02:30:35;;;;;;;0.20;0.20;;;;;;;;;;5144070;28;20523;-79
2022/01/15 02:33:02;;;;;;;0.20;0.20;;;;;;;;;;5143505;27;20242;-79
2022/01/15 02:35:29;;;;;;;0.20;0.20;;;;;;;;;;5143963;27;20203;-78
2022/01/15 02:38:01;;;;;;;0.20;0.20;;;;;;;;;;5143883;27;20421;-79
2022/01/15 02:40:27;;;;;;;0.20;0.20;;;;;;;;;;5126092;27;20200;-78
2022/01/15 02:42:53;;;;;;;0.20;0.20;;;;;;;;;;5123264;28;20204;-80
2022/01/15 02:45:22;;;;;;;0.20;0.20;;;;;;;;;;5126279;28;20239;-79
2022/01/15 02:48:03;;;;;;;0.10;0.10;;;;;;;;;;5127015;28;20415;-78
2022/01/15 02:50:34;;;;;;;0.10;0.10;;;;;;;;;;5140721;27;20247;-79
2022/01/15 02:53:01;;;;;;;0.20;0.20;;;;;;;;;;5147800;27;20438;-78
2022/01/15 02:55:27;;;;;;;0.10;0.10;;;;;;;;;;5147687;27;20549;-79
2022/01/15 02:57:54;;;;;;;0.20;0.20;;;;;;;;;;5147196;27;20220;-77
2022/01/15 03:00:23;;;;;;;0.20;0.20;;;;;;;;;;5147582;27;20260;-79
2022/01/15 03:02:49;;;;;;;0.20;0.20;;;;;;;;;;5147445;27;20493;-79
2022/01/15 03:05:15;;;;;;;0.20;0.20;;;;;;;;;;5147146;27;20227;-80
2022/01/15 03:07:42;;;;;;;0.20;0.20;;;;;;;;;;5147324;27;20225;-80
2022/01/15 03:10:09;;;;;;;0.20;0.20;;;;;;;;;;5139078;27;20249;-79
2022/01/15 03:12:36;;;;;;;0.20;0.20;;;;;;;;;;5128328;27;20506;-81
2022/01/15 03:15:04;;;;;;;0.20;0.20;;;;;;;;;;5126788;27;20556;-79
2022/01/15 03:17:30;;;;;;;0.20;0.20;;;;;;;;;;5126280;28;20270;-80
2022/01/15 03:19:56;;;;;;;0.20;0.20;;;;;;;;;;5126618;28;20434;-80
2022/01/15 03:22:22;;;;;;;0.13;0.13;;;;;;;;;;5132289;27;20214;-79
2022/01/15 03:24:50;;;;;;;0.20;0.20;;;;;;;;;;5146810;27;20201;-80
2022/01/15 03:27:17;;;;;;;0.20;0.20;;;;;;;;;;5146671;27;20532;-79
2022/01/15 03:29:43;;;;;;;0.20;0.20;;;;;;;;;;5147202;27;20489;-79
2022/01/15 03:32:09;;;;;;;0.20;0.20;;;;;;;;;;5147109;27;20208;-78
2022/01/15 03:34:35;;;;;;;0.10;0.10;;;;;;;;;;5142528;27;20327;-78
2022/01/15 03:37:02;;;;;;;0.20;0.20;;;;;;;;;;5128172;27;20206;-79
2022/01/15 03:39:28;;;;;;;0.20;0.20;;;;;;;;;;5126096;28;20458;-79
2022/01/15 03:41:56;;;;;;;0.10;0.10;;;;;;;;;;5126215;28;20202;-79
2022/01/15 03:44:22;;;;;;;0.20;0.20;;;;;;;;;;5126179;28;20368;-78
2022/01/15 03:46:48;;;;;;;0.20;0.20;;;;;;;;;;5125736;27;20222;-79
2022/01/15 03:49:14;;;;;;;0.20;0.20;;;;;;;;;;5126042;28;20204;-78
2022/01/15 03:51:41;;;;;;;0.20;0.20;;;;;;;;;;5125996;28;20203;-79
2022/01/15 03:54:07;;;;;;;0.20;0.20;;;;;;;;;;5125566;28;20227;-79
2022/01/15 03:56:33;;;;;;;0.20;0.20;;;;;;;;;;5125489;27;20203;-78
2022/01/15 03:59:01;;;;;;;0.20;0.20;;;;;;;;;;5125560;28;20203;-78
2022/01/15 04:01:27;;;;;;;0.20;0.20;;;;;;;;;;5125592;28;20245;-79
2022/01/15 04:03:53;;;;;;;0.20;0.20;;;;;;;;;;5125490;28;20223;-78
2022/01/15 04:06:19;;;;;;;0.20;0.20;;;;;;;;;;5125247;28;20205;-78
2022/01/15 04:08:46;;;;;;;0.10;0.10;;;;;;;;;;5125433;28;20408;-79
2022/01/15 04:11:12;;;;;;;0.20;0.20;;;;;;;;;;5125556;28;20211;-79
2022/01/15 04:13:38;;;;;;;0.10;0.10;;;;;;;;;;5125176;28;20203;-80
2022/01/15 04:16:06;;;;;;;0.20;0.20;;;;;;;;;;5125182;28;20209;-78
2022/01/15 04:18:40;;;;;;;0.20;0.20;;;;;;;;;;5125107;27;20210;-78
2022/01/15 04:21:09;;;;;;;0.13;0.13;;;;;;;;;;5125250;28;20261;-79
2022/01/15 04:23:35;;;;;;;0.20;0.20;;;;;;;;;;5124995;28;20244;-79
2022/01/15 04:26:01;;;;;;;0.20;0.20;;;;;;;;;;5125310;28;20511;-79
2022/01/15 04:28:29;;;;;;;0.10;0.10;;;;;;;;;;5125426;28;20592;-79
2022/01/15 04:30:55;;;;;;;0.20;0.20;;;;;;;;;;5145923;27;20201;-79
2022/01/15 04:33:22;;;;;;;0.20;0.20;;;;;;;;;;5145799;27;20434;-79
2022/01/15 04:35:49;;;;;;;0.20;0.20;;;;;;;;;;5145448;27;20239;-79
2022/01/15 04:38:15;;;;;;;0.20;0.20;;;;;;;;;;5145510;27;20515;-79
2022/01/15 04:40:41;;;;;;;0.20;0.20;;;;;;;;;;5135333;27;20210;-79
2022/01/15 04:43:07;;;;;;;0.20;0.20;;;;;;;;;;5124857;28;20202;-78
2022/01/15 04:45:34;;;;;;;0.20;0.20;;;;;;;;;;5125082;28;20243;-79
2022/01/15 04:48:00;;;;;;;0.20;0.20;;;;;;;;;;5124868;28;20222;-79
2022/01/15 04:50:27;;;;;;;0.20;0.20;;;;;;;;;;5125163;28;20202;-79
2022/01/15 04:52:54;;;;;;;0.20;0.20;;;;;;;;;;5124667;28;20203;-79
2022/01/15 04:55:20;;;;;;;0.20;0.20;;;;;;;;;;5124609;28;20210;-74
2022/01/15 04:57:46;;;;;;;0.20;0.20;;;;;;;;;;5124249;28;20198;-78
2022/01/15 05:00:14;;;;;;;0.20;0.20;;;;;;;;;;5123829;27;20208;-79
2022/01/15 05:02:40;;;;;;;0.20;0.20;;;;;;;;;;5123931;28;20240;-80
2022/01/15 05:05:07;;;;;;;0.20;0.20;;;;;;;;;;5124092;28;20239;-77
2022/01/15 05:07:35;;;;;;;0.20;0.20;;;;;;;;;;5123528;28;20289;-79
2022/01/15 05:10:01;;;;;;;0.20;0.20;;;;;;;;;;5124473;28;20367;-80
2022/01/15 05:12:31;;;;;;;0.20;0.20;;;;;;;;;;5124543;28;20202;-79
2022/01/15 05:14:57;;;;;;;0.20;0.20;;;;;;;;;;5124788;28;20274;-78
2022/01/15 05:17:23;;;;;;;0.20;0.20;;;;;;;;;;5123891;28;20252;-79
2022/01/15 05:19:49;;;;;;;0.20;0.20;;;;;;;;;;5137421;27;20197;-79
2022/01/15 05:22:16;;;;;;;0.20;0.20;;;;;;;;;;5144846;27;20202;-79
2022/01/15 05:24:43;;;;;;;0.20;0.20;;;;;;;;;;5144871;27;20416;-79
2022/01/15 05:27:09;;;;;;;0.20;0.20;;;;;;;;;;5144739;27;20221;-79
2022/01/15 05:29:36;;;;;;;0.20;0.20;;;;;;;;;;5144697;27;20201;-80
2022/01/15 05:32:02;;;;;;;0.20;0.20;;;;;;;;;;5144447;27;20243;-79
2022/01/15 05:34:28;;;;;;;0.20;0.20;;;;;;;;;;5144366;27;20383;-79
2022/01/15 05:36:55;;;;;;;0.20;0.20;;;;;;;;;;5144611;27;20202;-79
2022/01/15 05:39:21;;;;;;;0.20;0.20;;;;;;;;;;5144249;27;20250;-79
2022/01/15 05:41:48;;;;;;;0.20;0.20;;;;;;;;;;5123930;28;20198;-79
2022/01/15 05:44:15;;;;;;;0.20;0.20;;;;;;;;;;5123486;28;20206;-79
2022/01/15 05:46:41;;;;;;;1.30;1.30;;;;;;;;;;5123936;28;20203;-80
2022/01/15 05:49:07;;;;;;;0.20;0.20;;;;;;;;;;5123649;28;20231;-78
2022/01/15 05:51:33;;;;;;;0.20;0.20;;;;;;;;;;5123563;28;20207;-78
2022/01/15 05:54:00;;;;;;;0.20;0.20;;;;;;;;;;5123742;28;20249;-80
2022/01/15 05:56:26;;;;;;;0.20;0.20;;;;;;;;;;5123687;28;20211;-78
2022/01/15 05:58:54;;;;;;;0.20;0.20;;;;;;;;;;5123817;28;20206;-78
2022/01/15 06:01:20;;;;;;;0.20;0.20;;;;;;;;;;5123427;28;20247;-79
2022/01/15 06:03:46;;;;;;;0.20;0.20;;;;;;;;;;5123679;28;20276;-79
2022/01/15 06:06:12;;;;;;;0.20;0.20;;;;;;;;;;5123437;28;20238;-79
2022/01/15 06:08:39;;;;;;;0.20;0.20;;;;;;;;;;5123349;28;20290;-79
2022/01/15 06:11:05;;;;;;;0.20;0.20;;;;;;;;;;5123699;28;20494;-79
2022/01/15 06:13:31;;;;;;;0.20;0.20;;;;;;;;;;5123213;28;20208;-79
2022/01/15 06:15:59;;;;;;;0.20;0.20;;;;;;;;;;5123332;28;20224;-78
2022/01/15 06:18:25;;;;;;;0.20;0.20;;;;;;;;;;5123329;28;20205;-79
2022/01/15 06:20:51;;;;;;;0.20;0.20;;;;;;;;;;5128055;28;20202;-78
2022/01/15 06:23:18;;;;;;;0.20;0.20;;;;;;;;;;5127757;28;20499;-78
2022/01/15 06:25:44;;;;;;;0.20;0.20;;;;;;;;;;5127853;28;20201;-78
2022/01/15 06:28:10;;;;;;;0.20;0.20;;;;;;;;;;5127468;28;20259;-79
2022/01/15 06:30:36;;;;;;;0.20;0.20;;;;;;;;;;5127571;27;20202;-77
2022/01/15 06:33:04;;;;;;;0.20;0.20;;;;;;;;;;5127337;28;20243;-78
2022/01/15 06:35:30;;;;;;;0.27;0.27;;;;;;;;;;5127180;28;20210;-78
2022/01/15 06:37:56;;;;;;;0.20;0.20;;;;;;;;;;5127395;28;20243;-79
2022/01/15 06:40:22;;;;;;;0.20;0.20;;;;;;;;;;5129504;27;20262;-78
2022/01/15 06:42:49;;;;;;;0.20;0.20;;;;;;;;;;5147892;27;20205;-79
2022/01/15 06:45:15;;;;;;;0.20;0.20;;;;;;;;;;5147981;27;20246;-79
2022/01/15 06:47:41;;;;;;;0.20;0.20;;;;;;;;;;5147902;27;20221;-79
2022/01/15 06:50:09;;;;;;;0.20;0.20;;;;;;;;;;5147526;27;20205;-79
2022/01/15 06:52:36;;;;;;;0.20;0.20;;;;;;;;;;5147715;27;20404;-75
2022/01/15 06:55:02;;;;;;;0.20;0.20;;;;;;;;;;5147427;27;20209;-78
2022/01/15 06:57:29;;;;;;;0.20;0.20;;;;;;;;;;5147660;27;20398;-78
2022/01/15 06:59:55;;;;;;;0.20;0.20;;;;;;;;;;5142319;27;20206;-79
2022/01/15 07:02:21;;;;;;;0.27;0.27;;;;;;;;;;5129735;27;20210;-78
2022/01/15 07:04:47;;;;;;;0.20;0.20;;;;;;;;;;5130874;27;20201;-79
2022/01/15 07:07:15;;;;;;;0.20;0.20;;;;;;;;;;5135677;27;20454;-79
2022/01/15 07:09:41;;;;;;;0.20;0.20;;;;;;;;;;5137935;27;20233;-78
2022/01/15 07:12:08;;;;;;;0.20;0.20;;;;;;;;;;5126487;28;20203;-78
2022/01/15 07:14:34;;;;;;;0.20;0.20;;;;;;;;;;5126320;28;20202;-78
2022/01/15 07:17:01;;;;;;;0.10;0.10;;;;;;;;;;5131987;27;20314;-78
2022/01/15 07:19:28;;;;;;;0.20;0.20;;;;;;;;;;5137886;27;20261;-79
2022/01/15 07:21:54;;;;;;;0.20;0.20;;;;;;;;;;5134738;27;20282;-76
2022/01/15 07:24:22;;;;;;;0.20;0.20;;;;;;;;;;5138463;27;20229;-79
2022/01/15 07:26:49;;;;;;;0.20;0.20;;;;;;;;;;5138103;27;20201;-78
2022/01/15 07:29:16;;;;;;;0.20;0.20;;;;;;;;;;5131847;27;20226;-75
2022/01/15 07:31:43;;;;;;;0.20;0.20;;;;;;;;;;5132607;27;20302;-78
2022/01/15 07:34:09;;;;;;;0.20;0.20;;;;;;;;;;5125982;28;20201;-79
2022/01/15 07:36:35;;;;;;;0.20;0.20;;;;;;;;;;5137361;27;20549;-78
2022/01/15 07:39:02;;;;;;;0.20;0.20;;;;;;;;;;5143319;27;20226;-79
2022/01/15 07:41:29;;;;;;;0.20;0.20;;;;;;;;;;5135261;27;20200;-79
2022/01/15 07:43:55;;;;;;;0.20;0.20;;;;;;;;;;5128850;27;20210;-78
2022/01/15 07:46:21;;;;;;;0.20;0.20;;;;;;;;;;5127032;27;20198;-79
2022/01/15 07:48:48;;;;;;;0.20;0.20;;;;;;;;;;5136677;27;20454;-78
2022/01/15 07:51:14;;;;;;;0.20;0.20;;;;;;;;;;5126194;28;20217;-77
2022/01/15 07:53:41;;;;;;;0.20;0.20;;;;;;;;;;5131654;27;20201;-78
2022/01/15 07:56:07;;;;;;;0.20;0.20;;;;;;;;;;5132650;27;20217;-79
2022/01/15 07:58:34;;;;;;;0.20;0.20;;;;;;;;;;5146495;27;20254;-79
2022/01/15 08:01:01;;;;;;;0.20;0.20;;;;;;;;;;5146144;27;20209;-78
2022/01/15 08:03:27;;;;;;;0.20;0.20;;;;;;;;;;5146114;27;20202;-78
2022/01/15 08:05:53;;;;;;;0.13;0.13;;;;;;;;;;5145944;27;20201;-79
2022/01/15 08:08:19;;;;;;;0.20;0.20;;;;;;;;;;5145786;27;20232;-78
2022/01/15 08:10:46;;;;;;;0.20;0.20;;;;;;;;;;5146170;27;20224;-78
2022/01/15 08:13:12;;;;;;;0.20;0.20;;;;;;;;;;5145854;27;20239;-79
2022/01/15 08:15:40;;;;;;;0.20;0.20;;;;;;;;;;5131874;27;20225;-79
2022/01/15 08:18:06;;;;;;;0.20;0.20;;;;;;;;;;5128548;27;20214;-79
2022/01/15 08:20:32;;;;;;;0.40;0.40;;;;;;;;;;5132655;27;20205;-79
2022/01/15 08:22:58;;;;;;;0.20;0.20;;;;;;;;;;5128485;27;20259;-79
2022/01/15 08:25:25;;;;;;;0.20;0.20;;;;;;;;;;5129938;27;20202;-75
2022/01/15 08:27:53;;;;;;;0.20;0.20;;;;;;;;;;5127287;27;20205;-79
2022/01/15 08:30:21;;;;;;;0.20;0.20;;;;;;;;;;5133287;27;20577;-80
2022/01/15 08:32:48;;;;;;;0.20;0.20;;;;;;;;;;5128392;27;20198;-79
2022/01/15 08:35:15;;;;;;;0.20;0.20;;;;;;;;;;5131631;27;20562;-79
2022/01/15 08:37:41;;;;;;;0.20;0.20;;;;;;;;;;5129221;27;20201;-78
2022/01/15 08:40:08;;;;;;;0.20;0.20;;;;;;;;;;5134352;27;20197;-77
2022/01/15 08:42:35;;;;;;;0.20;0.20;;;;;;;;;;5130345;27;20239;-79
2022/01/15 08:45:01;;;;;;;0.20;0.20;;;;;;;;;;5126016;27;20210;-79
2022/01/15 08:47:27;;;;;;;0.17;0.17;;;;;;;;;;5124603;28;20388;-78
2022/01/15 08:49:55;;;;;;;0.20;0.20;;;;;;;;;;5134299;27;20225;-80
2022/01/15 08:52:22;;;;;;;0.13;0.13;;;;;;;;;;5144568;27;20197;-80
2022/01/15 08:54:48;;;;;;;0.20;0.20;;;;;;;;;;5137763;27;20251;-79
2022/01/15 08:57:14;;;;;;;0.20;0.20;;;;;;;;;;5131793;27;20238;-78
2022/01/15 08:59:40;;;;;;;0.20;0.20;;;;;;;;;;5136160;27;20230;-77
2022/01/15 09:02:07;;;;;;;0.20;0.20;;;;;;;;;;5133817;27;20210;-78
2022/01/15 09:04:33;;;;;;;0.20;0.20;;;;;;;;;;5144620;27;20201;-79
2022/01/15 09:07:01;;;;;;;0.20;0.20;;;;;;;;;;5144416;27;20270;-79
2022/01/15 09:09:27;;;;;;;0.20;0.20;;;;;;;;;;5138810;27;20268;-77
2022/01/15 09:11:53;;;;;;;0.20;0.20;;;;;;;;;;5141582;27;20224;-75
2022/01/15 09:14:19;;;;;;;0.20;0.20;;;;;;;;;;5144127;27;20207;-76
2022/01/15 09:16:46;;;;;;;0.20;0.20;;;;;;;;;;5126811;27;20226;-74
2022/01/15 09:19:12;;;;;;;0.20;0.20;;;;;;;;;;5129092;27;20469;-76
2022/01/15 09:21:38;;;;;;;0.20;0.20;;;;;;;;;;5130869;27;20211;-77
2022/01/15 09:24:06;;;;;;;0.20;0.20;;;;;;;;;;5131117;27;20503;-76
2022/01/15 09:26:48;;;;;;;0.17;0.17;;;;;;;;;;5124009;28;20202;-78
2022/01/15 09:31:59;;;;;;;0.20;0.20;;;;;;;;;;5144284;27;20196;-77
2022/01/15 09:34:26;;;;;;;0.20;0.20;;;;;;;;;;5142605;27;20247;-77
2022/01/15 09:36:52;;;;;;;0.20;0.20;;;;;;;;;;5123687;28;20485;-75
2022/01/15 09:39:20;;;;;;;0.20;0.20;;;;;;;;;;5123494;28;20199;-73
2022/01/15 09:41:48;;;;;;;0.20;0.20;;;;;;;;;;5143960;27;20246;-76
2022/01/15 09:44:14;;;;;;;0.10;0.10;;;;;;;;;;5144686;27;20245;-77
2022/01/15 09:46:41;;;;;;;0.10;0.10;;;;;;;;;;5143605;27;20225;-74
2022/01/15 09:49:08;;;;;;;0.20;0.20;;;;;;;;;;5123937;28;20231;-75
2022/01/15 09:51:35;;;;;;;0.20;0.20;;;;;;;;;;5123521;28;20235;-74
2022/01/15 09:54:01;;;;;;;0.20;0.20;;;;;;;;;;5123792;27;20477;-75
2022/01/15 09:56:28;;;;;;;0.17;0.17;;;;;;;;;;5123190;28;20224;-74
2022/01/15 09:58:57;;;;;;;0.13;0.13;;;;;;;;;;5144157;27;20198;-74
2022/01/15 10:01:24;;;;;;;0.20;0.20;;;;;;;;;;5142467;27;20201;-76
2022/01/15 10:03:51;;;;;;;0.10;0.10;;;;;;;;;;5142623;27;20200;-74
2022/01/15 10:06:17;;;;;;;0.20;0.20;;;;;;;;;;5140426;27;20201;-75
2022/01/15 10:08:58;;;;;;;0.20;0.20;;;;;;;;;;5134448;27;20291;-74
2022/01/15 10:11:40;;;;;;;0.20;0.20;;;;;;;;;;5123345;28;20198;-72
2022/01/15 10:14:22;;;;;;;0.20;0.20;;;;;;;;;;5131774;28;20220;-75
2022/01/15 10:16:49;;;;;;;0.17;0.17;;;;;;;;;;5123489;28;20199;-74
2022/01/15 10:19:24;;;;;;;0.10;0.10;;;;;;;;;;5129165;27;20210;-75
2022/01/15 10:22:04;;;;;;;0.17;0.17;;;;;;;;;;5135379;27;20198;-75
2022/01/15 10:24:30;;;;;;;0.20;0.20;;;;;;;;;;5132701;28;20229;-75
2022/01/15 10:26:56;;;;;;;0.20;0.20;;;;;;;;;;5137448;27;20202;-74
2022/01/15 10:29:25;;;;;;;0.13;0.13;;;;;;;;;;5129892;28;20260;-74
2022/01/15 10:31:52;;;;;;;0.20;0.20;;;;;;;;;;5126187;28;20269;-73
2022/01/15 10:34:25;;;;;;;0.20;0.20;;;;;;;;;;5133106;28;20210;-74
2022/01/15 10:36:52;;;;;;;0.20;0.20;;;;;;;;;;5128429;28;20203;-73
2022/01/15 10:39:20;;;;;;;0.20;0.20;;;;;;;;;;5132205;27;20270;-72
2022/01/15 10:41:47;;;;;;;0.20;0.20;;;;;;;;;;5126935;28;20199;-74
2022/01/15 10:44:31;;;;;;;0.20;0.20;;;;;;;;;;5124108;28;20260;-72
2022/01/15 10:47:01;;;;;;;0.10;0.10;;;;;;;;;;5123041;28;20197;-73
2022/01/15 10:49:28;;;;;;;0.20;0.20;;;;;;;;;;5123121;28;20219;-74
2022/01/15 10:52:14;;;;;;;0.20;0.20;;;;;;;;;;5122815;28;20224;-75
2022/01/15 10:54:50;;;;;;;0.10;0.10;;;;;;;;;;5123238;28;20222;-73
2022/01/15 10:57:18;;;;;;;0.20;0.20;;;;;;;;;;5122924;28;20190;-73
2022/01/15 10:59:56;;;;;;;0.20;0.20;;;;;;;;;;5123204;28;20256;-72
2022/01/15 11:02:22;;;;;;;0.10;0.10;;;;;;;;;;5123141;28;20538;-72
2022/01/15 11:04:48;;;;;;;0.20;0.20;;;;;;;;;;5129766;27;20501;-73
2022/01/15 11:07:16;;;;;;;0.10;0.10;;;;;;;;;;5127429;27;20489;-73
2022/01/15 11:09:43;;;;;;;0.20;0.20;;;;;;;;;;5143532;27;20261;-72
2022/01/15 11:12:10;;;;;;;0.10;0.10;;;;;;;;;;5147376;27;20244;-73
2022/01/15 11:14:36;;;;;;;0.10;0.10;;;;;;;;;;5146878;27;20227;-73
2022/01/15 11:17:04;;;;;;;0.20;0.20;;;;;;;;;;5144086;27;20244;-73
2022/01/15 11:19:31;;;;;;;0.20;0.20;;;;;;;;;;5138319;27;20199;-72
2022/01/15 11:21:58;;;;;;;0.20;0.20;;;;;;;;;;5147185;27;20253;-73
2022/01/15 11:24:24;;;;;;;0.17;0.17;;;;;;;;;;5135385;27;20266;-73
2022/01/15 11:26:52;;;;;;;0.10;0.10;;;;;;;;;;5147015;27;20203;-72
2022/01/15 11:29:19;;;;;;;0.20;0.20;;;;;;;;;;5135139;27;20321;-72
2022/01/15 11:31:46;;;;;;;0.20;0.20;;;;;;;;;;5126437;27;20305;-73
2022/01/15 11:34:16;;;;;;;0.10;0.10;;;;;;;;;;5139670;27;20202;-75
2022/01/15 11:36:43;;;;;;;0.20;0.20;;;;;;;;;;5132450;27;20280;-74
2022/01/15 11:39:10;;;;;;;0.10;0.10;;;;;;;;;;5129036;27;20472;-75
2022/01/15 11:41:40;;;;;;;0.20;0.20;;;;;;;;;;5126091;27;20204;-74
2022/01/15 11:44:08;;;;;;;0.20;0.20;;;;;;;;;;5126175;28;20212;-74
2022/01/15 11:46:39;;;;;;;0.10;0.10;;;;;;;;;;5125863;27;20204;-75
2022/01/15 11:49:24;;;;;;;0.20;0.20;;;;;;;;;;5137365;27;20213;-75
2022/01/15 11:51:51;;;;;;;0.10;0.10;;;;;;;;;;5139705;27;20206;-75
2022/01/15 11:54:18;;;;;;;0.10;0.10;;;;;;;;;;5139413;27;20259;-71
2022/01/15 11:56:46;;;;;;;0.20;0.20;;;;;;;;;;5141551;27;20208;-75
2022/01/15 11:59:31;;;;;;;0.10;0.10;;;;;;;;;;5136614;27;20202;-74
2022/01/15 12:01:59;;;;;;;0.10;0.10;;;;;;;;;;5139865;27;20207;-74
2022/01/15 12:04:26;;;;;;;0.10;0.10;;;;;;;;;;5134011;27;20232;-77
2022/01/15 12:07:11;;;;;;;0.17;0.17;;;;;;;;;;5129868;27;20447;-78
2022/01/15 12:09:40;;;;;;;0.20;0.20;;;;;;;;;;5125463;28;20222;-78
2022/01/15 12:12:28;;;;;;;0.20;0.20;;;;;;;;;;5128432;27;20437;-77
2022/01/15 12:14:57;;;;;;;0.13;0.13;;;;;;;;;;5144341;27;20542;-76
2022/01/15 12:17:24;;;;;;;0.10;0.10;;;;;;;;;;5127051;27;20216;-78
2022/01/15 12:19:51;;;;;;;0.13;0.13;;;;;;;;;;5125638;28;20235;-77
2022/01/15 12:22:32;;;;;;;0.20;0.20;;;;;;;;;;5125155;28;20274;-78
2022/01/15 12:25:00;;;;;;;0.10;0.10;;;;;;;;;;5125330;28;20198;-77
2022/01/15 12:27:27;;;;;;;0.10;0.10;;;;;;;;;;5125051;28;20248;-77
2022/01/15 12:30:00;;;;;;;0.10;0.10;;;;;;;;;;5124895;28;20452;-77
2022/01/15 12:32:31;;;;;;;0.17;0.17;;;;;;;;;;5125036;27;20452;-77
2022/01/15 12:34:58;;;;;;;0.20;0.20;;;;;;;;;;5125224;28;20240;-77
2022/01/15 12:37:25;;;;;;;0.20;0.20;;;;;;;;;;5125172;28;20527;-77
2022/01/15 12:39:51;;;;;;;0.20;0.20;;;;;;;;;;5129281;27;20405;-79
2022/01/15 12:42:20;;;;;;;0.20;0.20;;;;;;;;;;5145357;27;20202;-79
2022/01/15 12:44:47;;;;;;;0.20;0.20;;;;;;;;;;5145578;27;20201;-79
2022/01/15 12:47:14;;;;;;;0.10;0.10;;;;;;;;;;5145115;27;20214;-77
2022/01/15 12:49:41;;;;;;;0.20;0.20;;;;;;;;;;5145051;27;20259;-77
2022/01/15 12:52:12;;;;;;;0.20;0.20;;;;;;;;;;5145789;27;20207;-77
2022/01/15 12:54:38;;;;;;;0.20;0.20;;;;;;;;;;5145399;27;20511;-78
2022/01/15 12:57:05;;;;;;;0.20;0.20;;;;;;;;;;5145332;27;20202;-78
2022/01/15 12:59:33;;;;;;;0.20;0.20;;;;;;;;;;5144931;27;20202;-77
2022/01/15 13:02:00;;;;;;;0.20;0.20;;;;;;;;;;5145209;27;20231;-77
2022/01/15 13:04:26;;;;;;;0.20;0.20;;;;;;;;;;5145210;27;20205;-77
2022/01/15 13:06:58;;;;;;;0.10;0.10;;;;;;;;;;5144965;27;20203;-78
2022/01/15 13:09:24;;;;;;;0.20;0.20;;;;;;;;;;5145146;27;20234;-78
2022/01/15 13:11:57;;;;;;;0.20;0.20;;;;;;;;;;5145153;27;20243;-77
2022/01/15 13:14:23;;;;;;;0.20;0.20;;;;;;;;;;5144871;27;20187;-78
2022/01/15 13:16:51;;;;;;;0.20;0.20;;;;;;;;;;5144689;27;20207;-77
2022/01/15 13:19:17;;;;;;;0.20;0.20;;;;;;;;;;5144921;27;20201;-78
2022/01/15 13:21:45;;;;;;;0.10;0.10;;;;;;;;;;5144898;27;20529;-78
2022/01/15 13:24:12;;;;;;;0.20;0.20;;;;;;;;;;5144302;27;20293;-77
2022/01/15 13:26:39;;;;;;;0.13;0.13;;;;;;;;;;5144905;27;20511;-78
2022/01/15 13:29:07;;;;;;;0.10;0.10;;;;;;;;;;5143962;27;20202;-78
2022/01/15 13:31:34;;;;;;;0.10;0.10;;;;;;;;;;5144485;27;20513;-78
2022/01/15 13:34:08;;;;;;;0.20;0.20;;;;;;;;;;5144475;27;20210;-77
2022/01/15 13:36:34;;;;;;;0.20;0.20;;;;;;;;;;5141555;27;20356;-77
2022/01/15 13:39:01;;;;;;;0.30;0.30;;;;;;;;;;5143926;27;20232;-74
2022/01/15 13:41:31;;;;;;;0.20;0.20;;;;;;;;;;5143732;27;20198;-75
2022/01/15 13:44:03;;;;;;;0.20;0.20;;;;;;;;;;5137095;27;20230;-74
2022/01/15 13:46:30;;;;;;;0.10;0.10;;;;;;;;;;5127274;27;20243;-75
2022/01/15 13:48:59;;;;;;;0.10;0.10;;;;;;;;;;5133485;27;20343;-75
2022/01/15 13:54:12;;;;;;;0.20;0.20;;;;;;;;;;5135303;27;20205;-75
2022/01/15 13:56:41;;;;;;;0.13;0.13;;;;;;;;;;5133182;27;20202;-75
2022/01/15 13:59:09;;;;;;;0.50;0.50;;;;;;;;;;5131736;27;20299;-75
2022/01/15 14:01:36;;;;;;;0.10;0.10;;;;;;;;;;5137847;27;20233;-75
2022/01/15 14:04:21;;;;;;;0.20;0.20;;;;;;;;;;5129529;27;20239;-75
2022/01/15 14:06:49;;;;;;;0.10;0.10;;;;;;;;;;5134599;27;20255;-76
2022/01/15 14:09:17;;;;;;;0.10;0.10;;;;;;;;;;5130258;28;20229;-75
2022/01/15 14:11:54;;;;;;;0.10;0.10;;;;;;;;;;5134977;27;20231;-74
2022/01/15 14:14:21;;;;;;;0.10;0.10;;;;;;;;;;5131311;28;20194;-75
2022/01/15 14:16:51;;;;;;;0.10;0.10;;;;;;;;;;5125532;28;20555;-76
2022/01/15 14:19:39;;;;;;;0.20;0.20;;;;;;;;;;5128713;28;20198;-77
2022/01/15 14:22:21;;;;;;;0.10;0.10;;;;;;;;;;5133872;28;20241;-76
2022/01/15 14:24:48;;;;;;;0.20;0.20;;;;;;;;;;5131886;28;20252;-75
2022/01/15 14:27:19;;;;;;;0.20;0.20;;;;;;;;;;5143376;27;20201;-75
2022/01/15 14:29:46;;;;;;;0.10;0.10;;;;;;;;;;5126619;27;20235;-77
2022/01/15 14:32:12;;;;;;;0.10;0.10;;;;;;;;;;5123319;28;20203;-75
2022/01/15 14:34:38;;;;;;;0.20;0.20;;;;;;;;;;5127133;28;20199;-76
2022/01/15 14:37:05;;;;;;;0.20;0.20;;;;;;;;;;5123184;28;20207;-75
2022/01/15 14:39:32;;;;;;;0.17;0.17;;;;;;;;;;5124709;27;20203;-73
2022/01/15 14:41:59;;;;;;;0.20;0.20;;;;;;;;;;5146559;27;20252;-75
2022/01/15 14:44:25;;;;;;;0.10;0.10;;;;;;;;;;5147586;27;20260;-74
2022/01/15 14:46:51;;;;;;;0.20;0.20;;;;;;;;;;5147677;27;20294;-74
2022/01/15 14:49:17;;;;;;;0.10;0.10;;;;;;;;;;5147486;27;20246;-74
2022/01/15 14:51:44;;;;;;;0.10;0.10;;;;;;;;;;5147499;27;20224;-74
2022/01/15 14:54:10;;;;;;;0.20;0.20;;;;;;;;;;5147347;27;20203;-72
2022/01/15 14:56:37;;;;;;;0.20;0.20;;;;;;;;;;5147536;27;20198;-75
2022/01/15 14:59:03;;;;;;;0.20;0.20;;;;;;;;;;5147559;27;20214;-73
2022/01/15 15:01:30;;;;;;;0.10;0.10;;;;;;;;;;5147537;27;20406;-73
2022/01/15 15:04:00;;;;;;;0.10;0.10;;;;;;;;;;5146737;27;20207;-73
2022/01/15 15:06:26;;;;;;;0.20;0.20;;;;;;;;;;5147710;27;20505;-73
2022/01/15 15:08:53;;;;;;;0.20;0.20;;;;;;;;;;5147131;27;20223;-75